Time,TemperatureF,DewpointF,PressureIn,WindDirection,WindDirectionDegrees,WindSpeedMPH,WindSpeedGustMPH,Humidity,HourlyPrecipIn,Conditions,Clouds,dailyrainin,SoftwareType,DateUTC
2013-01-19 00:00:00,36.2,30.3,30.11,ESE,107,0.0,0.0,79,0.00,,CLR,0.00,VWS V14.00,2013-01-19 08:00:00,
2013-01-19 00:03:00,37.7,31.5,30.11,ESE,108,0.0,0.0,78,0.00,,CLR,0.00,VWS V14.00,2013-01-19 08:03:00,
2013-01-19 00:08:00,37.4,31.2,30.11,ESE,107,0.0,0.0,78,0.00,,CLR,0.00,VWS V14.00,2013-01-19 08:08:00,
2013-01-19 00:13:00,37.4,31.2,30.11,ESE,108,0.0,0.0,78,0.00,,CLR,0.00,VWS V14.00,2013-01-19 08:13:00,
2013-01-19 00:18:00,37.2,31.3,30.11,ESE,107,0.0,0.0,79,0.00,,CLR,0.00,VWS V14.00,2013-01-19 08:18:00,
2013-01-19 00:23:00,37.2,31.3,30.11,ESE,107,0.0,0.0,79,0.00,,CLR,0.00,VWS V14.00,2013-01-19 08:23:00,
2013-01-19 00:28:00,36.9,31.0,30.11,ESE,107,0.0,0.0,79,0.00,,CLR,0.00,VWS V14.00,2013-01-19 08:28:00,
2013-01-19 00:30:00,35.4,29.5,30.11,ESE,107,0.0,0.0,79,0.00,,CLR,0.00,VWS V14.00,2013-01-19 08:30:00,
2013-01-19 00:33:00,36.9,31.0,30.11,ESE,108,0.0,0.0,79,0.00,,CLR,0.00,VWS V14.00,2013-01-19 08:33:00,
2013-01-19 00:38:00,36.6,30.7,30.11,ESE,107,0.0,0.0,79,0.00,,CLR,0.00,VWS V14.00,2013-01-19 08:38:00,
2013-01-19 00:43:00,36.5,30.9,30.11,ESE,107,0.0,0.0,80,0.00,,CLR,0.00,VWS V14.00,2013-01-19 08:43:00,
2013-01-19 00:48:00,36.3,30.7,30.11,ESE,108,0.0,0.0,80,0.00,,CLR,0.00,VWS V14.00,2013-01-19 08:48:00,
2013-01-19 00:53:00,36.5,30.6,30.10,ESE,108,0.0,0.0,79,0.00,,CLR,0.00,VWS V14.00,2013-01-19 08:53:00,
2013-01-19 00:58:00,36.3,30.4,30.11,ESE,107,0.0,0.0,79,0.00,,CLR,0.00,VWS V14.00,2013-01-19 08:58:00,
2013-01-19 01:00:00,35.0,29.2,30.12,ESE,106,0.0,0.0,79,0.00,,CLR,0.00,VWS V14.00,2013-01-19 09:00:00,
2013-01-19 01:03:00,36.2,30.6,30.11,ESE,107,0.0,0.0,80,0.00,,CLR,0.00,VWS V14.00,2013-01-19 09:03:00,
2013-01-19 01:08:00,35.7,29.8,30.11,ESE,107,0.0,0.0,79,0.00,,CLR,0.00,VWS V14.00,2013-01-19 09:08:00,
2013-01-19 01:13:00,35.7,29.8,30.11,ESE,108,0.0,0.0,79,0.00,,CLR,0.00,VWS V14.00,2013-01-19 09:13:00,
2013-01-19 01:18:00,35.7,29.8,30.11,ESE,107,0.0,0.0,79,0.00,,CLR,0.00,VWS V14.00,2013-01-19 09:18:00,
2013-01-19 01:23:00,35.7,29.8,30.11,ESE,107,0.0,0.0,79,0.00,,CLR,0.00,VWS V14.00,2013-01-19 09:23:00,
2013-01-19 01:28:00,35.7,29.8,30.11,ESE,108,0.0,0.0,79,0.00,,CLR,0.00,VWS V14.00,2013-01-19 09:28:00,
2013-01-19 01:30:00,34.4,28.9,30.12,ESE,107,0.0,0.0,80,0.00,,CLR,0.00,VWS V14.00,2013-01-19 09:30:00,
2013-01-19 01:33:00,35.6,30.0,30.11,ESE,107,0.0,0.0,80,0.00,,CLR,0.00,VWS V14.00,2013-01-19 09:33:00,
2013-01-19 01:38:00,35.3,29.8,30.11,ESE,107,0.0,0.0,80,0.00,,CLR,0.00,VWS V14.00,2013-01-19 09:38:00,
2013-01-19 01:43:00,35.4,29.9,30.11,ESE,108,0.0,0.0,80,0.00,,CLR,0.00,VWS V14.00,2013-01-19 09:43:00,
2013-01-19 01:48:00,35.3,29.8,30.12,ESE,107,0.0,0.0,80,0.00,,CLR,0.00,VWS V14.00,2013-01-19 09:48:00,
2013-01-19 01:53:00,35.2,29.4,30.12,ESE,108,0.0,0.0,79,0.00,,CLR,0.00,VWS V14.00,2013-01-19 09:53:00,
2013-01-19 01:58:00,35.0,29.2,30.12,ESE,108,0.0,0.0,79,0.00,,CLR,0.00,VWS V14.00,2013-01-19 09:58:00,
2013-01-19 02:00:00,33.8,28.9,30.12,ESE,108,0.0,0.0,82,0.00,,CLR,0.00,VWS V14.00,2013-01-19 10:00:00,
2013-01-19 02:03:00,34.7,28.9,30.12,ESE,107,0.0,0.0,79,0.00,,CLR,0.00,VWS V14.00,2013-01-19 10:03:00,
2013-01-19 02:08:00,34.7,29.2,30.12,ESE,107,0.0,0.0,80,0.00,,CLR,0.00,VWS V14.00,2013-01-19 10:08:00,
2013-01-19 02:13:00,34.6,28.8,30.12,ESE,107,0.0,0.0,79,0.00,,CLR,0.00,VWS V14.00,2013-01-19 10:13:00,
2013-01-19 02:18:00,34.5,29.0,30.12,ESE,107,0.0,0.0,80,0.00,,CLR,0.00,VWS V14.00,2013-01-19 10:18:00,
2013-01-19 02:23:00,34.5,29.0,30.12,ESE,107,0.0,0.0,80,0.00,,CLR,0.00,VWS V14.00,2013-01-19 10:23:00,
2013-01-19 02:28:00,34.5,29.0,30.12,ESE,107,0.0,0.0,80,0.00,,CLR,0.00,VWS V14.00,2013-01-19 10:28:00,
2013-01-19 02:30:00,33.5,28.9,30.13,ESE,107,0.0,0.0,83,0.00,,CLR,0.00,VWS V14.00,2013-01-19 10:30:00,
2013-01-19 02:33:00,34.4,28.9,30.12,ESE,107,0.0,0.0,80,0.00,,CLR,0.00,VWS V14.00,2013-01-19 10:33:00,
2013-01-19 02:38:00,34.2,29.0,30.12,ESE,107,0.0,0.0,81,0.00,,CLR,0.00,VWS V14.00,2013-01-19 10:38:00,
2013-01-19 02:43:00,34.2,29.0,30.12,ESE,108,0.0,0.0,81,0.00,,CLR,0.00,VWS V14.00,2013-01-19 10:43:00,
2013-01-19 02:48:00,34.2,29.3,30.12,ESE,107,0.0,0.0,82,0.00,,CLR,0.00,VWS V14.00,2013-01-19 10:48:00,
2013-01-19 02:53:00,34.0,29.1,30.12,ESE,108,0.0,0.0,82,0.00,,CLR,0.00,VWS V14.00,2013-01-19 10:53:00,
2013-01-19 02:58:00,33.7,28.8,30.12,ESE,107,0.0,0.0,82,0.00,,CLR,0.00,VWS V14.00,2013-01-19 10:58:00,
2013-01-19 03:00:00,33.0,28.4,30.13,ESE,107,0.0,0.0,83,0.00,,CLR,0.00,VWS V14.00,2013-01-19 11:00:00,
2013-01-19 03:03:00,33.9,29.0,30.12,ESE,107,0.0,0.0,82,0.00,,CLR,0.00,VWS V14.00,2013-01-19 11:03:00,
2013-01-19 03:09:00,33.7,28.8,30.12,ESE,107,0.0,0.0,82,0.00,,CLR,0.00,VWS V14.00,2013-01-19 11:09:00,
2013-01-19 03:14:00,33.6,28.7,30.12,ESE,108,0.0,0.0,82,0.00,,CLR,0.00,VWS V14.00,2013-01-19 11:14:00,
2013-01-19 03:30:00,32.6,28.3,30.13,ESE,108,0.0,0.0,84,0.00,,CLR,0.00,VWS V14.00,2013-01-19 11:30:00,
2013-01-19 04:00:00,32.1,27.5,30.13,ESE,107,0.0,0.0,83,0.00,,CLR,0.00,VWS V14.00,2013-01-19 12:00:00,
2013-01-19 04:30:00,31.9,27.6,30.14,ESE,107,0.0,0.0,84,0.00,,CLR,0.00,VWS V14.00,2013-01-19 12:30:00,
2013-01-19 04:47:00,32.3,27.7,30.13,ESE,107,0.0,0.0,83,0.00,,CLR,0.00,VWS V14.00,2013-01-19 12:47:00,
2013-01-19 04:48:00,32.1,27.5,30.13,ESE,108,0.0,0.0,83,0.00,,CLR,0.00,VWS V14.00,2013-01-19 12:48:00,
2013-01-19 04:53:00,32.2,27.6,30.14,ESE,108,0.0,0.0,83,0.00,,CLR,0.00,VWS V14.00,2013-01-19 12:53:00,
2013-01-19 04:58:00,31.9,27.3,30.13,ESE,107,0.0,0.0,83,0.00,,CLR,0.00,VWS V14.00,2013-01-19 12:58:00,
2013-01-19 05:00:00,31.5,27.5,30.15,ESE,107,0.0,0.0,85,0.00,,CLR,0.00,VWS V14.00,2013-01-19 13:00:00,
2013-01-19 05:03:00,32.0,27.4,30.13,ESE,107,0.0,0.0,83,0.00,,CLR,0.00,VWS V14.00,2013-01-19 13:03:00,
2013-01-19 05:08:00,31.8,27.2,30.13,ESE,108,0.0,0.0,83,0.00,,CLR,0.00,VWS V14.00,2013-01-19 13:08:00,
2013-01-19 05:13:00,31.9,27.3,30.14,ESE,108,0.0,0.0,83,0.00,,CLR,0.00,VWS V14.00,2013-01-19 13:13:00,
2013-01-19 05:18:00,31.5,26.9,30.14,ESE,107,0.0,0.0,83,0.00,,CLR,0.00,VWS V14.00,2013-01-19 13:18:00,
2013-01-19 05:23:00,31.7,27.1,30.14,ESE,107,0.0,0.0,83,0.00,,CLR,0.00,VWS V14.00,2013-01-19 13:23:00,
2013-01-19 05:28:00,31.4,27.1,30.14,ESE,107,0.0,0.0,84,0.00,,CLR,0.00,VWS V14.00,2013-01-19 13:28:00,
2013-01-19 05:30:00,31.2,27.2,30.15,ESE,107,0.0,0.0,85,0.00,,CLR,0.00,VWS V14.00,2013-01-19 13:30:00,
2013-01-19 05:33:00,31.6,27.6,30.14,ESE,107,0.0,0.0,85,0.00,,CLR,0.00,VWS V14.00,2013-01-19 13:33:00,
2013-01-19 05:38:00,31.4,27.4,30.14,ESE,107,0.0,0.0,85,0.00,,CLR,0.00,VWS V14.00,2013-01-19 13:38:00,
2013-01-19 05:43:00,31.5,27.5,30.14,ESE,107,0.0,0.0,85,0.00,,CLR,0.00,VWS V14.00,2013-01-19 13:43:00,
2013-01-19 05:48:00,31.3,27.3,30.14,ESE,108,0.0,0.0,85,0.00,,CLR,0.00,VWS V14.00,2013-01-19 13:48:00,
2013-01-19 05:53:00,31.4,27.4,30.14,ESE,108,0.0,0.0,85,0.00,,CLR,0.00,VWS V14.00,2013-01-19 13:53:00,
2013-01-19 05:58:00,31.3,27.3,30.15,ESE,107,0.0,0.0,85,0.00,,CLR,0.00,VWS V14.00,2013-01-19 13:58:00,
2013-01-19 06:00:00,30.8,27.1,30.16,ESE,108,0.0,0.0,86,0.00,,CLR,0.00,VWS V14.00,2013-01-19 14:00:00,
2013-01-19 06:03:00,31.6,27.6,30.14,ESE,107,0.0,0.0,85,0.00,,CLR,0.00,VWS V14.00,2013-01-19 14:03:00,
2013-01-19 06:08:00,31.5,27.5,30.15,ESE,107,0.0,0.0,85,0.00,,CLR,0.00,VWS V14.00,2013-01-19 14:08:00,
2013-01-19 06:13:00,31.6,27.6,30.15,ESE,107,0.0,0.0,85,0.00,,CLR,0.00,VWS V14.00,2013-01-19 14:13:00,
2013-01-19 06:18:00,31.5,27.5,30.15,ESE,107,0.0,0.0,85,0.00,,CLR,0.00,VWS V14.00,2013-01-19 14:18:00,
2013-01-19 06:23:00,31.5,27.5,30.15,ESE,107,0.0,0.0,85,0.00,,CLR,0.00,VWS V14.00,2013-01-19 14:23:00,
2013-01-19 06:28:00,31.4,27.4,30.15,ESE,107,0.0,0.0,85,0.00,,CLR,0.00,VWS V14.00,2013-01-19 14:28:00,
2013-01-19 06:30:00,30.6,26.9,30.16,ESE,107,0.0,0.0,86,0.00,,CLR,0.00,VWS V14.00,2013-01-19 14:30:00,
2013-01-19 06:33:00,31.4,27.4,30.15,ESE,107,0.0,0.0,85,0.00,,CLR,0.00,VWS V14.00,2013-01-19 14:33:00,
2013-01-19 06:38:00,31.2,27.2,30.15,ESE,108,0.0,0.0,85,0.00,,CLR,0.00,VWS V14.00,2013-01-19 14:38:00,
2013-01-19 06:43:00,31.1,26.8,30.16,ESE,107,0.0,0.0,84,0.00,,CLR,0.00,VWS V14.00,2013-01-19 14:43:00,
2013-01-19 06:48:00,31.0,27.0,30.15,ESE,107,0.0,0.0,85,0.00,,CLR,0.00,VWS V14.00,2013-01-19 14:48:00,
2013-01-19 06:53:00,30.9,26.9,30.16,ESE,107,0.0,0.0,85,0.00,,CLR,0.00,VWS V14.00,2013-01-19 14:53:00,
2013-01-19 06:58:00,31.1,27.4,30.15,ESE,107,0.0,0.0,86,0.00,,CLR,0.00,VWS V14.00,2013-01-19 14:58:00,
2013-01-19 07:00:00,30.9,27.5,30.17,ESE,107,0.0,0.0,87,0.00,,CLR,0.00,VWS V14.00,2013-01-19 15:00:00,
2013-01-19 07:03:00,30.9,27.2,30.16,ESE,107,0.0,0.0,86,0.00,,CLR,0.00,VWS V14.00,2013-01-19 15:03:00,
2013-01-19 07:08:00,30.9,27.5,30.16,ESE,108,0.0,0.0,87,0.00,,CLR,0.00,VWS V14.00,2013-01-19 15:08:00,
2013-01-19 07:13:00,31.0,27.6,30.16,ESE,108,0.0,0.0,87,0.00,,CLR,0.00,VWS V14.00,2013-01-19 15:13:00,
2013-01-19 07:18:00,31.0,27.3,30.16,ESE,107,0.0,0.0,86,0.00,,CLR,0.00,VWS V14.00,2013-01-19 15:18:00,
2013-01-19 07:23:00,30.9,27.2,30.16,ESE,107,0.0,0.0,86,0.00,,CLR,0.00,VWS V14.00,2013-01-19 15:23:00,
2013-01-19 07:28:00,30.7,27.0,30.16,ESE,107,0.0,0.0,86,0.00,,CLR,0.00,VWS V14.00,2013-01-19 15:28:00,
2013-01-19 07:30:00,31.9,28.2,30.17,ESE,107,0.0,0.0,86,0.00,,CLR,0.00,VWS V14.00,2013-01-19 15:30:00,
2013-01-19 07:33:00,31.0,27.3,30.16,ESE,108,0.0,0.0,86,0.00,,CLR,0.00,VWS V14.00,2013-01-19 15:33:00,
2013-01-19 07:38:00,30.7,27.0,30.16,ESE,107,0.0,0.0,86,0.00,,CLR,0.00,VWS V14.00,2013-01-19 15:38:00,
2013-01-19 07:43:00,30.8,27.4,30.16,ESE,107,0.0,0.0,87,0.00,,CLR,0.00,VWS V14.00,2013-01-19 15:43:00,
2013-01-19 07:48:00,31.0,27.6,30.16,ESE,107,0.0,0.0,87,0.00,,CLR,0.00,VWS V14.00,2013-01-19 15:48:00,
2013-01-19 07:53:00,30.8,27.1,30.17,ESE,107,0.0,0.0,86,0.00,,CLR,0.00,VWS V14.00,2013-01-19 15:53:00,
2013-01-19 07:58:00,31.2,27.8,30.17,ESE,107,0.0,0.0,87,0.00,,CLR,0.00,VWS V14.00,2013-01-19 15:58:00,
2013-01-19 08:00:00,33.6,30.1,30.18,ESE,108,0.0,0.0,87,0.00,,CLR,0.00,VWS V14.00,2013-01-19 16:00:00,
2013-01-19 08:03:00,31.1,27.7,30.17,ESE,107,0.0,0.0,87,0.00,,CLR,0.00,VWS V14.00,2013-01-19 16:03:00,
2013-01-19 08:08:00,31.4,28.0,30.17,ESE,107,0.0,0.0,87,0.00,,CLR,0.00,VWS V14.00,2013-01-19 16:08:00,
2013-01-19 08:13:00,31.4,28.0,30.16,ESE,107,0.0,0.0,87,0.00,,CLR,0.00,VWS V14.00,2013-01-19 16:13:00,
2013-01-19 08:18:00,31.4,28.0,30.18,ESE,107,0.0,0.0,87,0.00,,CLR,0.00,VWS V14.00,2013-01-19 16:18:00,
2013-01-19 08:23:00,31.7,28.3,30.17,ESE,108,0.0,0.0,87,0.00,,CLR,0.00,VWS V14.00,2013-01-19 16:23:00,
2013-01-19 08:28:00,31.8,28.1,30.17,ESE,107,0.0,0.0,86,0.00,,CLR,0.00,VWS V14.00,2013-01-19 16:28:00,
2013-01-19 08:30:00,36.2,31.8,30.19,ESE,103,0.0,0.0,84,0.00,,CLR,0.00,VWS V14.00,2013-01-19 16:30:00,
2013-01-19 08:33:00,31.9,28.2,30.18,ESE,107,0.0,0.0,86,0.00,,CLR,0.00,VWS V14.00,2013-01-19 16:33:00,
2013-01-19 08:38:00,32.1,28.4,30.17,ESE,108,0.0,0.0,86,0.00,,CLR,0.00,VWS V14.00,2013-01-19 16:38:00,
2013-01-19 08:43:00,32.3,28.9,30.18,ESE,108,0.0,0.0,87,0.00,,CLR,0.00,VWS V14.00,2013-01-19 16:43:00,
2013-01-19 08:48:00,32.9,29.5,30.18,ESE,108,0.0,0.0,87,0.00,,CLR,0.00,VWS V14.00,2013-01-19 16:48:00,
2013-01-19 08:53:00,32.8,29.4,30.18,ESE,107,0.0,0.0,87,0.00,,CLR,0.00,VWS V14.00,2013-01-19 16:53:00,
2013-01-19 08:58:00,33.4,30.0,30.18,ESE,107,0.0,0.0,87,0.00,,CLR,0.00,VWS V14.00,2013-01-19 16:58:00,
2013-01-19 09:00:00,39.2,33.6,30.20,ESE,104,0.0,0.0,80,0.00,,CLR,0.00,VWS V14.00,2013-01-19 17:00:00,
2013-01-19 09:03:00,33.9,30.2,30.18,ESE,108,0.0,0.0,86,0.00,,CLR,0.00,VWS V14.00,2013-01-19 17:03:00,
2013-01-19 09:09:00,34.3,30.3,30.18,ESE,107,0.0,0.0,85,0.00,,CLR,0.00,VWS V14.00,2013-01-19 17:09:00,
2013-01-19 09:14:00,35.0,31.0,30.19,ESE,103,0.0,0.0,85,0.00,,CLR,0.00,VWS V14.00,2013-01-19 17:14:00,
2013-01-19 09:19:00,34.9,30.9,30.19,ESE,102,0.0,0.0,85,0.00,,CLR,0.00,VWS V14.00,2013-01-19 17:19:00,
2013-01-19 09:24:00,35.4,31.1,30.19,ESE,103,0.0,0.0,84,0.00,,CLR,0.00,VWS V14.00,2013-01-19 17:24:00,
2013-01-19 09:29:00,35.9,31.5,30.19,ESE,103,0.0,0.0,84,0.00,,CLR,0.00,VWS V14.00,2013-01-19 17:29:00,
2013-01-19 09:30:00,43.7,37.3,30.19,ESE,108,0.0,0.0,78,0.00,,CLR,0.00,VWS V14.00,2013-01-19 17:30:00,
2013-01-19 09:34:00,36.4,31.7,30.19,ESE,103,0.0,0.0,83,0.00,,CLR,0.00,VWS V14.00,2013-01-19 17:34:00,
2013-01-19 09:39:00,36.6,31.9,30.19,ESE,103,0.0,0.0,83,0.00,,CLR,0.00,VWS V14.00,2013-01-19 17:39:00,
2013-01-19 09:44:00,37.6,32.6,30.19,ESE,103,0.0,0.0,82,0.00,,CLR,0.00,VWS V14.00,2013-01-19 17:44:00,
2013-01-19 09:49:00,37.7,32.7,30.19,ESE,103,0.0,0.0,82,0.00,,CLR,0.00,VWS V14.00,2013-01-19 17:49:00,
2013-01-19 09:54:00,38.7,33.4,30.19,ESE,103,0.0,0.0,81,0.00,,CLR,0.00,VWS V14.00,2013-01-19 17:54:00,
2013-01-19 09:59:00,39.1,33.8,30.20,ESE,103,0.0,0.0,81,0.00,,CLR,0.00,VWS V14.00,2013-01-19 17:59:00,
2013-01-19 10:00:00,48.3,40.4,30.17,ESE,111,0.0,0.0,74,0.00,,CLR,0.00,VWS V14.00,2013-01-19 18:00:00,
2013-01-19 10:04:00,39.9,34.5,30.20,ESE,103,0.0,0.0,81,0.00,,CLR,0.00,VWS V14.00,2013-01-19 18:04:00,
2013-01-19 10:10:00,40.5,34.8,30.19,ESE,102,0.0,0.0,80,0.00,,CLR,0.00,VWS V14.00,2013-01-19 18:10:00,
2013-01-19 10:15:00,41.1,35.4,30.19,ESE,103,0.0,0.0,80,0.00,,CLR,0.00,VWS V14.00,2013-01-19 18:15:00,
2013-01-19 10:20:00,42.3,36.3,30.19,ESE,108,0.0,0.0,79,0.00,,CLR,0.00,VWS V14.00,2013-01-19 18:20:00,
2013-01-19 10:25:00,43.0,36.6,30.19,ESE,108,0.0,0.0,78,0.00,,CLR,0.00,VWS V14.00,2013-01-19 18:25:00,
2013-01-19 10:30:00,43.6,37.2,30.18,ESE,109,0.0,0.0,78,0.00,,CLR,0.00,VWS V14.00,2013-01-19 18:30:00,
2013-01-19 10:35:00,44.8,38.0,30.19,ESE,109,0.0,0.0,77,0.00,,CLR,0.00,VWS V14.00,2013-01-19 18:35:00,
2013-01-19 10:40:00,45.3,38.2,30.18,ESE,109,0.0,0.0,76,0.00,,CLR,0.00,VWS V14.00,2013-01-19 18:40:00,
2013-01-19 10:45:00,46.2,38.7,30.18,ESE,111,0.0,0.0,75,0.00,,CLR,0.00,VWS V14.00,2013-01-19 18:45:00,
2013-01-19 10:50:00,47.1,39.6,30.17,ESE,110,0.0,0.0,75,0.00,,CLR,0.00,VWS V14.00,2013-01-19 18:50:00,
2013-01-19 10:55:00,47.7,40.2,30.17,ESE,111,0.0,0.0,75,0.00,,CLR,0.00,VWS V14.00,2013-01-19 18:55:00,
2013-01-19 11:00:00,57.2,43.9,30.15,North,2,0.0,3.0,61,0.00,,CLR,0.00,VWS V14.00,2013-01-19 19:00:00,
2013-01-19 11:01:00,48.5,40.6,30.17,ESE,110,0.0,0.0,74,0.00,,CLR,0.00,VWS V14.00,2013-01-19 19:01:00,
2013-01-19 11:06:00,49.1,40.5,30.17,East,96,0.0,0.0,72,0.00,,CLR,0.00,VWS V14.00,2013-01-19 19:06:00,
2013-01-19 11:12:00,49.9,41.2,30.17,East,100,0.0,0.0,72,0.00,,CLR,0.00,VWS V14.00,2013-01-19 19:12:00,
2013-01-19 11:17:00,50.8,41.8,30.16,SE,131,0.0,1.0,71,0.00,,CLR,0.00,VWS V14.00,2013-01-19 19:17:00,
2013-01-19 11:22:00,51.1,41.7,30.16,SE,132,0.0,1.0,70,0.00,,CLR,0.00,VWS V14.00,2013-01-19 19:22:00,
2013-01-19 11:27:00,52.0,41.8,30.15,SE,133,0.0,1.0,68,0.00,,CLR,0.00,VWS V14.00,2013-01-19 19:27:00,
2013-01-19 11:30:00,61.6,44.8,30.13,NE,45,2.0,5.0,54,0.00,,CLR,0.00,VWS V14.00,2013-01-19 19:30:00,
2013-01-19 11:32:00,53.0,42.3,30.15,SE,131,0.0,0.0,67,0.00,,CLR,0.00,VWS V14.00,2013-01-19 19:32:00,
2013-01-19 11:37:00,53.5,42.0,30.15,SE,126,0.0,0.0,65,0.00,,CLR,0.00,VWS V14.00,2013-01-19 19:37:00,
2013-01-19 11:42:00,54.2,42.7,30.15,SE,134,0.0,1.0,65,0.00,,CLR,0.00,VWS V14.00,2013-01-19 19:42:00,
2013-01-19 11:47:00,55.1,43.6,30.15,ESE,118,0.0,1.0,65,0.00,,CLR,0.00,VWS V14.00,2013-01-19 19:47:00,
2013-01-19 11:53:00,56.0,43.2,30.15,NNE,15,0.0,3.0,62,0.00,,CLR,0.00,VWS V14.00,2013-01-19 19:53:00,
2013-01-19 11:58:00,56.8,43.5,30.15,North,0,0.0,3.0,61,0.00,,CLR,0.00,VWS V14.00,2013-01-19 19:58:00,
2013-01-19 12:00:00,64.2,45.2,30.11,NNE,25,0.0,7.0,50,0.00,,CLR,0.00,VWS V14.00,2013-01-19 20:00:00,
2013-01-19 12:03:00,57.6,43.8,30.14,NE,54,0.0,3.0,60,0.00,,CLR,0.00,VWS V14.00,2013-01-19 20:03:00,
2013-01-19 12:08:00,58.9,44.6,30.14,North,6,0.0,3.0,59,0.00,,CLR,0.00,VWS V14.00,2013-01-19 20:08:00,
2013-01-19 12:13:00,59.1,43.9,30.14,NE,48,0.0,5.0,57,0.00,,CLR,0.00,VWS V14.00,2013-01-19 20:13:00,
2013-01-19 12:18:00,60.0,44.7,30.13,SSE,147,0.0,5.0,57,0.00,,CLR,0.00,VWS V14.00,2013-01-19 20:18:00,
2013-01-19 12:23:00,60.8,44.5,30.13,East,96,1.0,5.0,55,0.00,,CLR,0.00,VWS V14.00,2013-01-19 20:23:00,
2013-01-19 12:28:00,61.2,44.4,30.13,NE,47,4.0,5.0,54,0.00,,CLR,0.00,VWS V14.00,2013-01-19 20:28:00,
2013-01-19 12:30:00,67.1,45.7,30.11,NE,36,0.0,3.0,46,0.00,,CLR,0.00,VWS V14.00,2013-01-19 20:30:00,
2013-01-19 12:33:00,61.7,44.9,30.13,NNE,18,0.0,3.0,54,0.00,,CLR,0.00,VWS V14.00,2013-01-19 20:33:00,
2013-01-19 12:38:00,62.4,44.0,30.13,SE,144,0.0,3.0,51,0.00,,CLR,0.00,VWS V14.00,2013-01-19 20:38:00,
2013-01-19 12:43:00,63.0,44.6,30.12,NE,55,0.0,3.0,51,0.00,,CLR,0.00,VWS V14.00,2013-01-19 20:43:00,
2013-01-19 12:48:00,63.7,45.8,30.12,North,4,0.0,3.0,52,0.00,,CLR,0.00,VWS V14.00,2013-01-19 20:48:00,
2013-01-19 12:53:00,64.2,45.7,30.12,East,88,0.0,3.0,51,0.00,,CLR,0.00,VWS V14.00,2013-01-19 20:53:00,
2013-01-19 12:59:00,64.1,45.6,30.12,NE,35,0.0,7.0,51,0.00,,CLR,0.00,VWS V14.00,2013-01-19 20:59:00,
2013-01-19 13:00:00,68.6,46.4,30.11,ENE,66,0.0,6.0,45,0.00,,CLR,0.00,VWS V14.00,2013-01-19 21:00:00,
2013-01-19 13:04:00,64.5,45.5,30.12,SE,142,0.0,1.0,50,0.00,,CLR,0.00,VWS V14.00,2013-01-19 21:04:00,
2013-01-19 13:09:00,65.2,46.1,30.12,East,80,0.0,1.0,50,0.00,,CLR,0.00,VWS V14.00,2013-01-19 21:09:00,
2013-01-19 13:14:00,65.8,46.1,30.11,SSE,156,0.0,2.0,49,0.00,,CLR,0.00,VWS V14.00,2013-01-19 21:14:00,
2013-01-19 13:19:00,66.5,46.2,30.12,East,79,0.0,3.0,48,0.00,,CLR,0.00,VWS V14.00,2013-01-19 21:19:00,
2013-01-19 13:24:00,66.7,45.8,30.11,East,93,0.0,3.0,47,0.00,,CLR,0.00,VWS V14.00,2013-01-19 21:24:00,
2013-01-19 13:29:00,67.1,45.7,30.11,NE,46,0.0,3.0,46,0.00,,CLR,0.00,VWS V14.00,2013-01-19 21:29:00,
2013-01-19 13:30:00,70.0,45.9,30.10,SE,125,0.0,5.0,42,0.00,,CLR,0.00,VWS V14.00,2013-01-19 21:30:00,
2013-01-19 13:34:00,67.1,46.2,30.11,South,190,0.0,4.0,47,0.00,,CLR,0.00,VWS V14.00,2013-01-19 21:34:00,
2013-01-19 13:39:00,67.3,45.8,30.10,ENE,60,0.0,6.0,46,0.00,,CLR,0.00,VWS V14.00,2013-01-19 21:39:00,
2013-01-19 13:44:00,67.8,46.3,30.11,NE,56,0.0,6.0,46,0.00,,CLR,0.00,VWS V14.00,2013-01-19 21:44:00,
2013-01-19 13:49:00,67.8,46.3,30.10,ENE,70,1.0,6.0,46,0.00,,CLR,0.00,VWS V14.00,2013-01-19 21:49:00,
2013-01-19 13:55:00,68.2,46.1,30.11,NE,51,0.0,6.0,45,0.00,,CLR,0.00,VWS V14.00,2013-01-19 21:55:00,
2013-01-19 14:00:00,68.6,46.4,30.11,ENE,66,0.0,6.0,45,0.00,,CLR,0.00,VWS V14.00,2013-01-19 22:00:00,
2013-01-19 14:05:00,68.8,46.0,30.10,SE,129,0.0,4.0,44,0.00,,CLR,0.00,VWS V14.00,2013-01-19 22:05:00,
2013-01-19 14:10:00,69.5,46.7,30.10,East,92,0.0,4.0,44,0.00,,CLR,0.00,VWS V14.00,2013-01-19 22:10:00,
2013-01-19 14:15:00,69.8,46.3,30.10,NNE,30,2.0,4.0,43,0.00,,CLR,0.00,VWS V14.00,2013-01-19 22:15:00,
2013-01-19 14:20:00,69.7,46.2,30.10,East,94,0.0,5.0,43,0.00,,CLR,0.00,VWS V14.00,2013-01-19 22:20:00,
2013-01-19 14:25:00,70.4,46.2,30.10,NE,50,0.0,5.0,42,0.00,,CLR,0.00,VWS V14.00,2013-01-19 22:25:00,
2013-01-19 14:30:00,70.0,45.9,30.10,ESE,122,0.0,0.0,42,0.00,,CLR,0.00,VWS V14.00,2013-01-19 22:30:00,
2013-01-19 14:35:00,70.3,45.5,30.11,SE,130,1.0,3.0,41,0.00,,CLR,0.00,VWS V14.00,2013-01-19 22:35:00,
2013-01-19 14:40:00,70.7,45.9,30.10,ENE,59,0.0,3.0,41,0.00,,CLR,0.00,VWS V14.00,2013-01-19 22:40:00,
2013-01-19 14:46:00,71.0,46.1,30.09,SE,132,0.0,3.0,41,0.00,,CLR,0.00,VWS V14.00,2013-01-19 22:46:00,
2013-01-19 14:51:00,71.3,45.8,30.10,ENE,59,0.0,3.0,40,0.00,,CLR,0.00,VWS V14.00,2013-01-19 22:51:00,
2013-01-19 14:56:00,71.5,45.9,30.10,East,89,0.0,3.0,40,0.00,,CLR,0.00,VWS V14.00,2013-01-19 22:56:00,
2013-01-19 15:00:00,69.4,43.4,30.10,East,101,0.0,2.0,39,0.00,,CLR,0.00,VWS V14.00,2013-01-19 23:00:00,
2013-01-19 15:01:00,71.6,46.0,30.10,North,0,0.0,2.0,40,0.00,,CLR,0.00,VWS V14.00,2013-01-19 23:01:00,
2013-01-19 15:06:00,71.5,44.6,30.10,SSE,151,0.0,2.0,38,0.00,,CLR,0.00,VWS V14.00,2013-01-19 23:06:00,
2013-01-19 15:12:00,71.5,45.3,30.10,ESE,107,0.0,2.0,39,0.00,,CLR,0.00,VWS V14.00,2013-01-19 23:12:00,
2013-01-19 15:17:00,71.3,45.1,30.10,NNE,22,0.0,3.0,39,0.00,,CLR,0.00,VWS V14.00,2013-01-19 23:17:00,
2013-01-19 15:22:00,71.1,44.9,30.10,SE,131,0.0,3.0,39,0.00,,CLR,0.00,VWS V14.00,2013-01-19 23:22:00,
2013-01-19 15:27:00,71.2,44.3,30.10,SE,143,0.0,3.0,38,0.00,,CLR,0.00,VWS V14.00,2013-01-19 23:27:00,
2013-01-19 15:30:00,65.1,43.3,30.10,East,85,0.0,3.0,45,0.00,,CLR,0.00,VWS V14.00,2013-01-19 23:30:00,
2013-01-19 15:32:00,70.9,44.0,30.10,ESE,109,0.0,1.0,38,0.00,,CLR,0.00,VWS V14.00,2013-01-19 23:32:00,
2013-01-19 15:37:00,71.0,44.8,30.10,ESE,107,0.0,2.0,39,0.00,,CLR,0.00,VWS V14.00,2013-01-19 23:37:00,
2013-01-19 15:42:00,70.9,44.0,30.09,ENE,66,0.0,2.0,38,0.00,,CLR,0.00,VWS V14.00,2013-01-19 23:42:00,
2013-01-19 15:47:00,70.6,43.8,30.09,SE,131,0.0,2.0,38,0.00,,CLR,0.00,VWS V14.00,2013-01-19 23:47:00,
2013-01-19 15:52:00,70.2,44.1,30.09,SE,146,0.0,2.0,39,0.00,,CLR,0.00,VWS V14.00,2013-01-19 23:52:00,
2013-01-19 15:57:00,69.8,43.8,30.09,East,94,0.0,2.0,39,0.00,,CLR,0.00,VWS V14.00,2013-01-19 23:57:00,
2013-01-19 16:00:00,62.1,43.3,30.09,ESE,119,0.0,2.0,50,0.00,,CLR,0.00,VWS V14.00,2013-01-20 00:00:00,
2013-01-19 16:02:00,68.6,43.3,30.09,East,101,1.0,1.0,40,0.00,,CLR,0.00,VWS V14.00,2013-01-20 00:02:00,
2013-01-19 16:07:00,68.2,43.6,30.10,SSE,150,0.0,2.0,41,0.00,,CLR,0.00,VWS V14.00,2013-01-20 00:07:00,
2013-01-19 16:13:00,67.3,42.8,30.09,SE,137,0.0,2.0,41,0.00,,CLR,0.00,VWS V14.00,2013-01-20 00:13:00,
2013-01-19 16:18:00,66.5,43.9,30.09,SE,134,1.0,2.0,44,0.00,,CLR,0.00,VWS V14.00,2013-01-20 00:18:00,
2013-01-19 16:23:00,65.8,43.3,30.10,ESE,110,0.0,3.0,44,0.00,,CLR,0.00,VWS V14.00,2013-01-20 00:23:00,
2013-01-19 16:28:00,65.0,43.2,30.10,SE,136,0.0,3.0,45,0.00,,CLR,0.00,VWS V14.00,2013-01-20 00:28:00,
2013-01-19 16:30:00,59.9,43.2,30.10,ESE,119,0.0,1.0,54,0.00,,CLR,0.00,VWS V14.00,2013-01-20 00:30:00,
2013-01-19 16:33:00,64.9,43.1,30.10,East,94,0.0,1.0,45,0.00,,CLR,0.00,VWS V14.00,2013-01-20 00:33:00,
2013-01-19 16:38:00,64.3,43.1,30.09,ESE,120,0.0,1.0,46,0.00,,CLR,0.00,VWS V14.00,2013-01-20 00:38:00,
2013-01-19 16:43:00,63.5,42.9,30.09,ESE,121,0.0,1.0,47,0.00,,CLR,0.00,VWS V14.00,2013-01-20 00:43:00,
2013-01-19 16:48:00,63.4,43.4,30.10,ESE,106,0.0,2.0,48,0.00,,CLR,0.00,VWS V14.00,2013-01-20 00:48:00,
2013-01-19 16:53:00,62.8,43.4,30.10,ESE,114,0.0,2.0,49,0.00,,CLR,0.00,VWS V14.00,2013-01-20 00:53:00,
2013-01-19 16:58:00,62.1,43.3,30.10,ESE,119,0.0,2.0,50,0.00,,CLR,0.00,VWS V14.00,2013-01-20 00:58:00,
2013-01-19 17:00:00,57.1,42.5,30.10,ESE,119,0.0,0.0,58,0.00,,CLR,0.00,VWS V14.00,2013-01-20 01:00:00,
2013-01-19 17:03:00,62.3,44.0,30.10,ESE,119,0.0,1.0,51,0.00,,CLR,0.00,VWS V14.00,2013-01-20 01:03:00,
2013-01-19 17:08:00,61.9,43.6,30.10,ESE,119,0.0,1.0,51,0.00,,CLR,0.00,VWS V14.00,2013-01-20 01:08:00,
2013-01-19 17:13:00,61.4,43.6,30.09,ESE,120,0.0,1.0,52,0.00,,CLR,0.00,VWS V14.00,2013-01-20 01:13:00,
2013-01-19 17:19:00,60.8,43.1,30.10,ESE,119,0.0,1.0,52,0.00,,CLR,0.00,VWS V14.00,2013-01-20 01:19:00,
2013-01-19 17:24:00,60.5,43.3,30.10,ESE,120,0.0,1.0,53,0.00,,CLR,0.00,VWS V14.00,2013-01-20 01:24:00,
2013-01-19 17:29:00,59.9,43.2,30.10,ESE,119,0.0,1.0,54,0.00,,CLR,0.00,VWS V14.00,2013-01-20 01:29:00,
2013-01-19 17:30:00,54.2,41.5,30.11,ESE,119,0.0,0.0,62,0.00,,CLR,0.00,VWS V14.00,2013-01-20 01:30:00,
2013-01-19 17:34:00,59.3,43.2,30.10,ESE,120,0.0,0.0,55,0.00,,CLR,0.00,VWS V14.00,2013-01-20 01:34:00,
2013-01-19 17:39:00,58.7,42.6,30.10,ESE,120,0.0,0.0,55,0.00,,CLR,0.00,VWS V14.00,2013-01-20 01:39:00,
2013-01-19 17:44:00,58.2,42.6,30.10,ESE,120,0.0,0.0,56,0.00,,CLR,0.00,VWS V14.00,2013-01-20 01:44:00,
2013-01-19 17:49:00,58.0,42.4,30.10,ESE,119,0.0,0.0,56,0.00,,SCT250,0.00,VWS V14.00,2013-01-20 01:49:00,
2013-01-19 17:54:00,57.5,42.4,30.10,ESE,119,0.0,0.0,57,0.00,,SCT250,0.00,VWS V14.00,2013-01-20 01:54:00,
2013-01-19 17:59:00,56.8,42.2,30.10,ESE,119,0.0,0.0,58,0.00,,SCT250,0.00,VWS V14.00,2013-01-20 01:59:00,
2013-01-19 18:00:00,51.6,40.6,30.11,ESE,119,0.0,0.0,66,0.00,,CLR,0.00,VWS V14.00,2013-01-20 02:00:00,
2013-01-19 18:04:00,56.5,42.4,30.10,ESE,119,0.0,0.0,59,0.00,,SCT250,0.00,VWS V14.00,2013-01-20 02:04:00,
2013-01-19 18:09:00,55.9,42.2,30.10,ESE,120,0.0,0.0,60,0.00,,SCT250,0.00,VWS V14.00,2013-01-20 02:09:00,
2013-01-19 18:14:00,55.2,42.0,30.10,ESE,120,0.0,0.0,61,0.00,,SCT250,0.00,VWS V14.00,2013-01-20 02:14:00,
2013-01-19 18:19:00,54.9,41.7,30.11,ESE,120,0.0,0.0,61,0.00,,SCT250,0.00,VWS V14.00,2013-01-20 02:19:00,
2013-01-19 18:24:00,54.6,41.9,30.11,ESE,119,0.0,0.0,62,0.00,,SCT250,0.00,VWS V14.00,2013-01-20 02:24:00,
2013-01-19 18:29:00,53.9,41.2,30.11,ESE,119,0.0,0.0,62,0.00,,SCT250,0.00,VWS V14.00,2013-01-20 02:29:00,
2013-01-19 18:30:00,49.4,40.0,30.12,ESE,120,0.0,0.0,70,0.00,,CLR,0.00,VWS V14.00,2013-01-20 02:30:00,
2013-01-19 18:34:00,53.8,41.5,30.10,ESE,119,0.0,0.0,63,0.00,,SCT250,0.00,VWS V14.00,2013-01-20 02:34:00,
2013-01-19 18:40:00,53.4,41.5,30.10,ESE,119,0.0,0.0,64,0.00,,SCT250,0.00,VWS V14.00,2013-01-20 02:40:00,
2013-01-19 18:45:00,53.0,41.2,30.10,ESE,120,0.0,0.0,64,0.00,,SCT250,0.00,VWS V14.00,2013-01-20 02:45:00,
2013-01-19 18:50:00,52.7,41.3,30.11,ESE,119,0.0,0.0,65,0.00,,CLR,0.00,VWS V14.00,2013-01-20 02:50:00,
2013-01-19 18:55:00,51.9,40.9,30.11,ESE,119,0.0,0.0,66,0.00,,CLR,0.00,VWS V14.00,2013-01-20 02:55:00,
2013-01-19 19:00:00,51.6,40.6,30.11,ESE,119,0.0,0.0,66,0.00,,CLR,0.00,VWS V14.00,2013-01-20 03:00:00,
2013-01-19 19:05:00,51.5,41.3,30.11,ESE,120,0.0,0.0,68,0.00,,CLR,0.00,VWS V14.00,2013-01-20 03:05:00,
2013-01-19 19:10:00,50.8,40.6,30.11,ESE,119,0.0,0.0,68,0.00,,CLR,0.00,VWS V14.00,2013-01-20 03:10:00,
2013-01-19 19:15:00,50.5,40.7,30.11,ESE,120,0.0,0.0,69,0.00,,CLR,0.00,VWS V14.00,2013-01-20 03:15:00,
2013-01-19 19:20:00,50.1,40.7,30.12,ESE,120,0.0,0.0,70,0.00,,CLR,0.00,VWS V14.00,2013-01-20 03:20:00,
2013-01-19 19:25:00,49.8,40.4,30.12,ESE,120,0.0,0.0,70,0.00,,CLR,0.00,VWS V14.00,2013-01-20 03:25:00,
2013-01-19 19:30:00,49.3,39.9,30.12,ESE,119,0.0,0.0,70,0.00,,CLR,0.00,VWS V14.00,2013-01-20 03:30:00,
2013-01-19 19:35:00,48.9,39.6,30.12,ESE,119,0.0,0.0,70,0.00,,CLR,0.00,VWS V14.00,2013-01-20 03:35:00,
2013-01-19 19:40:00,48.7,39.7,30.12,ESE,119,0.0,0.0,71,0.00,,CLR,0.00,VWS V14.00,2013-01-20 03:40:00,
2013-01-19 19:45:00,48.4,39.4,30.12,ESE,119,0.0,0.0,71,0.00,,CLR,0.00,VWS V14.00,2013-01-20 03:45:00,
2013-01-19 19:51:00,48.2,39.6,30.12,ESE,119,0.0,0.0,72,0.00,,CLR,0.00,VWS V14.00,2013-01-20 03:51:00,
2013-01-19 19:55:00,48.0,40.1,30.12,ESE,119,0.0,0.0,74,0.00,,CLR,0.00,VWS V14.00,2013-01-20 03:55:00,
2013-01-19 20:00:00,47.6,39.7,30.12,ESE,119,0.0,0.0,74,0.00,,CLR,0.00,VWS V14.00,2013-01-20 04:00:00,
2013-01-19 20:05:00,47.3,39.8,30.12,ESE,119,0.0,0.0,75,0.00,,CLR,0.00,VWS V14.00,2013-01-20 04:05:00,
2013-01-19 20:11:00,47.0,39.5,30.12,ESE,119,0.0,0.0,75,0.00,,CLR,0.00,VWS V14.00,2013-01-20 04:11:00,
2013-01-19 20:16:00,46.5,39.0,30.13,ESE,119,0.0,0.0,75,0.00,,CLR,0.00,VWS V14.00,2013-01-20 04:16:00,
2013-01-19 20:21:00,46.6,39.1,30.13,ESE,119,0.0,0.0,75,0.00,,CLR,0.00,VWS V14.00,2013-01-20 04:21:00,
2013-01-19 20:26:00,46.3,39.2,30.13,ESE,119,0.0,0.0,76,0.00,,CLR,0.00,VWS V14.00,2013-01-20 04:26:00,
2013-01-19 20:30:00,43.1,37.0,30.14,ESE,120,0.0,0.0,79,0.00,,CLR,0.00,VWS V14.00,2013-01-20 04:30:00,
2013-01-19 20:31:00,46.0,39.2,30.13,ESE,120,0.0,0.0,77,0.00,,CLR,0.00,VWS V14.00,2013-01-20 04:31:00,
2013-01-19 20:36:00,45.8,39.0,30.13,ESE,119,0.0,0.0,77,0.00,,CLR,0.00,VWS V14.00,2013-01-20 04:36:00,
2013-01-19 20:41:00,45.7,38.9,30.13,ESE,119,0.0,0.0,77,0.00,,CLR,0.00,VWS V14.00,2013-01-20 04:41:00,
2013-01-19 20:46:00,44.9,38.1,30.13,ESE,119,0.0,0.0,77,0.00,,CLR,0.00,VWS V14.00,2013-01-20 04:46:00,
2013-01-19 20:51:00,44.9,38.1,30.14,ESE,119,0.0,0.0,77,0.00,,CLR,0.00,VWS V14.00,2013-01-20 04:51:00,
2013-01-19 20:56:00,44.7,37.9,30.13,ESE,119,0.0,0.0,77,0.00,,CLR,0.00,VWS V14.00,2013-01-20 04:56:00,
2013-01-19 21:00:00,44.5,38.1,30.14,ESE,120,0.0,0.0,78,0.00,,CLR,0.00,VWS V14.00,2013-01-20 05:00:00,
2013-01-19 21:01:00,44.6,38.2,30.14,ESE,119,0.0,0.0,78,0.00,,CLR,0.00,VWS V14.00,2013-01-20 05:01:00,
2013-01-19 21:03:00,44.2,37.8,30.14,ESE,120,0.0,0.0,78,0.00,,CLR,0.00,VWS V14.00,2013-01-20 05:03:00,
2013-01-19 21:08:00,44.0,37.3,30.14,ESE,118,0.0,0.0,77,0.00,,CLR,0.00,VWS V14.00,2013-01-20 05:08:00,
2013-01-19 21:13:00,43.7,37.3,30.14,ESE,120,0.0,0.0,78,0.00,,CLR,0.00,VWS V14.00,2013-01-20 05:13:00,
2013-01-19 21:18:00,43.7,37.3,30.14,ESE,119,0.0,0.0,78,0.00,,CLR,0.00,VWS V14.00,2013-01-20 05:18:00,
2013-01-19 21:23:00,43.5,37.1,30.14,ESE,119,0.0,0.0,78,0.00,,CLR,0.00,VWS V14.00,2013-01-20 05:23:00,
2013-01-19 21:28:00,43.2,37.1,30.14,ESE,120,0.0,0.0,79,0.00,,CLR,0.00,VWS V14.00,2013-01-20 05:28:00,
2013-01-19 21:30:00,40.7,34.4,30.15,ESE,120,0.0,0.0,78,0.00,,CLR,0.00,VWS V14.00,2013-01-20 05:30:00,
2013-01-19 21:33:00,43.0,36.9,30.14,ESE,120,0.0,0.0,79,0.00,,CLR,0.00,VWS V14.00,2013-01-20 05:33:00,
2013-01-19 21:38:00,42.5,36.5,30.15,ESE,120,0.0,0.0,79,0.00,,CLR,0.00,VWS V14.00,2013-01-20 05:38:00,
2013-01-19 21:43:00,42.4,36.0,30.15,ESE,119,0.0,0.0,78,0.00,,CLR,0.00,VWS V14.00,2013-01-20 05:43:00,
2013-01-19 21:48:00,42.3,35.9,30.14,ESE,120,0.0,0.0,78,0.00,,CLR,0.00,VWS V14.00,2013-01-20 05:48:00,
2013-01-19 21:53:00,42.2,35.5,30.14,ESE,119,0.0,0.0,77,0.00,,CLR,0.00,VWS V14.00,2013-01-20 05:53:00,
2013-01-19 21:58:00,42.0,35.0,30.15,ESE,120,0.0,0.0,76,0.00,,CLR,0.00,VWS V14.00,2013-01-20 05:58:00,
2013-01-19 22:00:00,39.6,33.6,30.16,ESE,119,0.0,0.0,79,0.00,,CLR,0.00,VWS V14.00,2013-01-20 06:00:00,
2013-01-19 22:03:00,41.6,34.9,30.15,ESE,120,0.0,0.0,77,0.00,,CLR,0.00,VWS V14.00,2013-01-20 06:03:00,
2013-01-19 22:08:00,41.6,34.9,30.15,ESE,119,0.0,0.0,77,0.00,,CLR,0.00,VWS V14.00,2013-01-20 06:08:00,
2013-01-19 22:13:00,41.2,34.5,30.15,ESE,119,0.0,0.0,77,0.00,,CLR,0.00,VWS V14.00,2013-01-20 06:13:00,
2013-01-19 22:18:00,40.9,34.6,30.15,ESE,119,0.0,0.0,78,0.00,,CLR,0.00,VWS V14.00,2013-01-20 06:18:00,
2013-01-19 22:23:00,40.8,34.5,30.15,ESE,120,0.0,0.0,78,0.00,,CLR,0.00,VWS V14.00,2013-01-20 06:23:00,
2013-01-19 22:28:00,40.8,34.5,30.16,ESE,120,0.0,0.0,78,0.00,,CLR,0.00,VWS V14.00,2013-01-20 06:28:00,
2013-01-19 22:30:00,39.1,33.2,30.16,ESE,119,0.0,0.0,79,0.00,,CLR,0.00,VWS V14.00,2013-01-20 06:30:00,
2013-01-19 22:33:00,40.5,34.2,30.16,ESE,119,0.0,0.0,78,0.00,,CLR,0.00,VWS V14.00,2013-01-20 06:33:00,
2013-01-19 22:38:00,40.5,34.2,30.15,ESE,119,0.0,0.0,78,0.00,,CLR,0.00,VWS V14.00,2013-01-20 06:38:00,
2013-01-19 22:43:00,40.0,33.7,30.15,ESE,119,0.0,0.0,78,0.00,,CLR,0.00,VWS V14.00,2013-01-20 06:43:00,
2013-01-19 22:48:00,40.2,34.2,30.15,ESE,119,0.0,0.0,79,0.00,,CLR,0.00,VWS V14.00,2013-01-20 06:48:00,
2013-01-19 22:53:00,40.0,34.0,30.16,ESE,120,0.0,0.0,79,0.00,,CLR,0.00,VWS V14.00,2013-01-20 06:53:00,
2013-01-19 22:58:00,40.1,34.1,30.16,ESE,120,0.0,0.0,79,0.00,,CLR,0.00,VWS V14.00,2013-01-20 06:58:00,
2013-01-19 23:00:00,38.1,32.8,30.16,ESE,119,0.0,0.0,81,0.00,,CLR,0.00,VWS V14.00,2013-01-20 07:00:00,
2013-01-19 23:03:00,39.7,33.7,30.16,ESE,120,0.0,0.0,79,0.00,,CLR,0.00,VWS V14.00,2013-01-20 07:03:00,
2013-01-19 23:08:00,39.5,33.5,30.15,ESE,120,0.0,0.0,79,0.00,,CLR,0.00,VWS V14.00,2013-01-20 07:08:00,
2013-01-19 23:13:00,39.2,33.2,30.16,ESE,119,0.0,0.0,79,0.00,,CLR,0.00,VWS V14.00,2013-01-20 07:13:00,
2013-01-19 23:18:00,38.9,33.0,30.16,ESE,119,0.0,0.0,79,0.00,,CLR,0.00,VWS V14.00,2013-01-20 07:18:00,
2013-01-19 23:23:00,39.0,33.4,30.16,ESE,119,0.0,0.0,80,0.00,,CLR,0.00,VWS V14.00,2013-01-20 07:23:00,
2013-01-19 23:28:00,38.9,33.3,30.15,ESE,119,0.0,0.0,80,0.00,,CLR,0.00,VWS V14.00,2013-01-20 07:28:00,
2013-01-19 23:30:00,37.4,32.1,30.15,ESE,119,0.0,0.0,81,0.00,,CLR,0.00,VWS V14.00,2013-01-20 07:30:00,
2013-01-19 23:33:00,38.8,32.9,30.16,ESE,120,0.0,0.0,79,0.00,,CLR,0.00,VWS V14.00,2013-01-20 07:33:00,
2013-01-19 23:38:00,38.6,32.7,30.16,ESE,119,0.0,0.0,79,0.00,,CLR,0.00,VWS V14.00,2013-01-20 07:38:00,
2013-01-19 23:43:00,38.5,32.6,30.16,ESE,120,0.0,0.0,79,0.00,,CLR,0.00,VWS V14.00,2013-01-20 07:43:00,
2013-01-19 23:48:00,38.4,32.8,30.16,ESE,119,0.0,0.0,80,0.00,,CLR,0.00,VWS V14.00,2013-01-20 07:48:00,
2013-01-19 23:53:00,38.5,32.9,30.16,ESE,119,0.0,0.0,80,0.00,,CLR,0.00,VWS V14.00,2013-01-20 07:53:00,
2013-01-19 23:58:00,38.4,33.1,30.16,ESE,119,0.0,0.0,81,0.00,,CLR,0.00,VWS V14.00,2013-01-20 07:58:00,